createdAt,value
2018-12-16T00:04:25.406Z,-0.73
2018-12-16T00:07:00.469Z,-0.75
2018-12-16T00:09:36.005Z,-0.73
2018-12-16T00:12:12.021Z,-0.79
2018-12-16T00:14:47.898Z,-0.84
2018-12-16T00:17:23.707Z,-0.84
2018-12-16T00:19:58.266Z,-0.88
2018-12-16T00:22:40.605Z,-0.84
2018-12-16T00:25:20.531Z,-0.81
2018-12-16T00:27:57.850Z,-0.79
2018-12-16T00:30:32.348Z,-0.77
2018-12-16T00:36:29.874Z,-0.82
2018-12-16T00:39:07.143Z,-0.81
2018-12-16T00:41:41.709Z,-0.78
2018-12-16T00:44:27.575Z,-0.85
2018-12-16T00:47:00.726Z,-0.80
2018-12-16T00:49:37.284Z,-0.79
2018-12-16T00:52:21.348Z,-0.85
2018-12-16T00:55:02.819Z,-0.86
2018-12-16T00:57:40.461Z,-0.85
2018-12-16T01:00:16.266Z,-0.86
2018-12-16T01:02:52.237Z,-0.84
2018-12-16T01:05:27.506Z,-0.88
2018-12-16T01:08:10.821Z,-0.89
2018-12-16T01:10:49.904Z,-0.94
2018-12-16T01:13:24.951Z,-0.97
2018-12-16T01:16:01.189Z,-0.95
2018-12-16T01:18:34.606Z,-0.92
2018-12-16T01:21:10.606Z,-0.89
2018-12-16T01:23:51.360Z,-0.96
2018-12-16T01:26:21.598Z,-0.93
2018-12-16T01:28:55.453Z,-0.95
2018-12-16T01:34:33.530Z,-0.95
2018-12-16T01:37:09.172Z,-1.03
2018-12-16T01:39:45.146Z,-0.94
2018-12-16T01:42:18.926Z,-0.94
2018-12-16T01:44:52.225Z,-0.93
2018-12-16T01:47:26.469Z,-0.94
2018-12-16T01:50:02.688Z,-0.98
2018-12-16T01:52:50.090Z,-0.99
2018-12-16T01:55:26.353Z,-0.93
2018-12-16T01:58:03.892Z,-1.04
2018-12-16T02:00:39.606Z,-0.93
2018-12-16T02:03:11.533Z,-0.91
2018-12-16T02:05:48.770Z,-0.95
2018-12-16T02:08:24.334Z,-0.98
2018-12-16T02:10:57.627Z,-0.98
2018-12-16T02:13:31.033Z,-1.03
2018-12-16T02:19:13.190Z,-1.01
2018-12-16T02:21:55.004Z,-1.03
2018-12-16T02:24:28.326Z,-1.03
2018-12-16T02:27:03.944Z,-1.02
2018-12-16T02:32:50.601Z,-1.00
2018-12-16T02:35:24.385Z,-1.02
2018-12-16T02:38:06.325Z,-1.00
2018-12-16T02:40:39.570Z,-1.01
2018-12-16T02:43:14.984Z,-1.06
2018-12-16T02:45:50.808Z,-1.07
2018-12-16T02:48:24.578Z,-1.03
2018-12-16T02:50:54.565Z,-1.05
2018-12-16T02:53:42.555Z,-1.03
2018-12-16T02:56:21.820Z,-1.11
2018-12-16T02:59:05.148Z,-1.11
2018-12-16T03:01:48.290Z,-1.09
2018-12-16T03:04:23.958Z,-1.09
2018-12-16T03:06:59.632Z,-1.07
2018-12-16T03:12:34.819Z,-1.00
2018-12-16T03:15:11.153Z,-0.99
2018-12-16T03:17:44.891Z,-1.02
2018-12-16T03:20:21.435Z,-1.05
2018-12-16T03:22:51.556Z,-1.05
2018-12-16T03:25:27.416Z,-1.04
2018-12-16T03:28:02.696Z,-1.06
2018-12-16T03:30:38.653Z,-1.02
2018-12-16T03:33:08.650Z,-1.03
2018-12-16T03:35:38.921Z,-1.07
2018-12-16T03:38:09.222Z,-1.06
2018-12-16T03:40:39.332Z,-1.05
2018-12-16T03:43:09.356Z,-1.05
2018-12-16T03:45:39.344Z,-1.02
2018-12-16T03:48:09.491Z,-0.94
2018-12-16T03:50:39.507Z,-0.97
2018-12-16T03:53:09.540Z,-0.97
2018-12-16T03:55:39.530Z,-0.97
2018-12-16T03:58:09.433Z,-0.95
2018-12-16T04:00:39.422Z,-0.94
2018-12-16T04:03:09.397Z,-0.97
2018-12-16T04:05:39.394Z,-0.92
2018-12-16T04:08:09.605Z,-0.94
2018-12-16T04:10:39.479Z,-1.00
2018-12-16T04:13:09.489Z,-1.01
2018-12-16T04:15:39.806Z,-0.97
2018-12-16T04:18:09.956Z,-0.98
2018-12-16T04:20:40.146Z,-0.94
2018-12-16T04:23:10.294Z,-0.93
2018-12-16T04:25:40.256Z,-0.90
2018-12-16T04:28:11.671Z,-0.87
2018-12-16T04:30:41.688Z,-0.89
2018-12-16T04:33:11.712Z,-0.90
2018-12-16T04:35:41.735Z,-0.87
2018-12-16T04:38:11.998Z,-0.87
2018-12-16T04:40:42.035Z,-0.90
2018-12-16T04:43:12.060Z,-0.92
2018-12-16T04:45:42.146Z,-0.87
2018-12-16T04:48:12.320Z,-0.88
2018-12-16T04:50:42.329Z,-0.87
2018-12-16T04:53:12.346Z,-0.88
2018-12-16T04:55:42.367Z,-0.85
2018-12-16T04:58:12.369Z,-0.87
2018-12-16T05:00:42.489Z,-0.86
2018-12-16T05:03:12.660Z,-0.86
2018-12-16T05:05:42.714Z,-0.86
2018-12-16T05:08:13.147Z,-0.87
2018-12-16T05:10:43.265Z,-0.85
2018-12-16T05:13:13.707Z,-0.93
2018-12-16T05:15:43.987Z,-0.86
2018-12-16T05:18:14.133Z,-0.82
2018-12-16T05:20:44.084Z,-0.78
2018-12-16T05:23:14.113Z,-0.80
2018-12-16T05:25:44.061Z,-0.72
2018-12-16T05:28:14.494Z,-0.74
2018-12-16T05:30:44.492Z,-0.68
2018-12-16T05:33:14.389Z,-0.65
2018-12-16T05:35:44.441Z,-0.66
2018-12-16T05:38:14.348Z,-0.72
2018-12-16T05:40:44.514Z,-0.72
2018-12-16T05:43:14.597Z,-0.68
2018-12-16T05:45:44.600Z,-0.63
2018-12-16T05:48:14.487Z,-0.61
2018-12-16T05:50:44.501Z,-0.58
2018-12-16T05:53:14.468Z,-0.60
2018-12-16T05:55:44.500Z,-0.59
2018-12-16T05:58:14.594Z,-0.58
2018-12-16T06:00:44.541Z,-0.63
2018-12-16T06:03:14.568Z,-0.60
2018-12-16T06:05:44.588Z,-0.58
2018-12-16T06:08:15.632Z,-0.55
2018-12-16T06:10:45.623Z,-0.53
2018-12-16T06:13:15.629Z,-0.53
2018-12-16T06:15:45.659Z,-0.61
2018-12-16T06:18:15.582Z,-0.57
2018-12-16T06:20:45.751Z,-0.51
2018-12-16T06:23:15.980Z,-0.49
2018-12-16T06:25:45.982Z,-0.54
2018-12-16T06:28:16.358Z,-0.52
2018-12-16T06:30:46.745Z,-0.52
2018-12-16T06:33:16.992Z,-0.50
2018-12-16T06:35:46.979Z,-0.53
2018-12-16T06:38:17.202Z,-0.55
2018-12-16T06:40:47.125Z,-0.54
2018-12-16T06:43:17.189Z,-0.51
2018-12-16T06:45:47.141Z,-0.52
2018-12-16T06:48:17.524Z,-0.51
2018-12-16T06:50:47.995Z,-0.49
2018-12-16T06:53:17.891Z,-0.52
2018-12-16T06:55:48.008Z,-0.52
2018-12-16T06:58:18.590Z,-0.52
2018-12-16T07:00:48.727Z,-0.46
2018-12-16T07:03:20.327Z,-0.46
2018-12-16T07:05:50.853Z,-0.43
2018-12-16T07:08:20.861Z,-0.45
2018-12-16T07:10:50.843Z,-0.44
2018-12-16T07:13:20.909Z,-0.44
2018-12-16T07:15:50.920Z,-0.42
2018-12-16T07:18:21.046Z,-0.46
2018-12-16T07:20:51.182Z,-0.45
2018-12-16T07:23:21.292Z,-0.45
2018-12-16T07:25:51.415Z,-0.44
2018-12-16T07:28:21.404Z,-0.47
2018-12-16T07:30:51.421Z,-0.44
2018-12-16T07:33:24.332Z,-0.44
2018-12-16T07:35:54.386Z,-0.45
2018-12-16T07:38:24.621Z,-0.40
2018-12-16T07:40:54.634Z,-0.42
2018-12-16T07:43:24.561Z,-0.40
2018-12-16T07:45:54.551Z,-0.46
2018-12-16T07:48:25.047Z,-0.42
2018-12-16T07:50:57.177Z,-0.38
2018-12-16T07:53:28.948Z,-0.34
2018-12-16T07:56:00.950Z,-0.33
2018-12-16T07:58:33.795Z,-0.29
2018-12-16T08:01:03.997Z,-0.29
2018-12-16T08:03:34.257Z,-0.23
2018-12-16T08:06:04.330Z,-0.27
2018-12-16T08:08:49.172Z,-0.25
2018-12-16T08:11:31.188Z,-0.24
2018-12-16T08:14:01.340Z,-0.25
2018-12-16T08:16:31.689Z,-0.26
2018-12-16T08:19:22.219Z,-0.24
2018-12-16T08:21:53.942Z,-0.19
2018-12-16T08:24:24.725Z,-0.13
2018-12-16T08:26:55.851Z,-0.13
2018-12-16T08:29:25.895Z,-0.10
2018-12-16T08:31:57.043Z,-0.05
2018-12-16T08:34:27.204Z,-0.04
2018-12-16T08:36:58.957Z,-0.06
2018-12-16T08:39:30.483Z,-0.01
2018-12-16T08:42:05.614Z,-0.02
2018-12-16T08:44:40.506Z,-0.08
2018-12-16T08:50:13.346Z,0.08
2018-12-16T08:52:51.302Z,0.01
2018-12-16T08:55:29.265Z,0.08
2018-12-16T08:57:59.359Z,0.09
2018-12-16T09:00:40.326Z,0.14
2018-12-16T09:03:19.342Z,0.20
2018-12-16T09:05:54.756Z,0.20
2018-12-16T09:08:27.459Z,0.23
2018-12-16T09:11:03.526Z,0.26
2018-12-16T09:13:37.409Z,0.15
2018-12-16T09:16:21.138Z,0.27
2018-12-16T09:18:57.597Z,0.29
2018-12-16T09:21:35.125Z,0.35
2018-12-16T09:24:10.907Z,0.25
2018-12-16T09:27:00.440Z,0.30
2018-12-16T09:29:36.198Z,0.27
2018-12-16T09:32:16.518Z,0.27
2018-12-16T09:34:48.300Z,0.27
2018-12-16T09:37:19.825Z,0.33
2018-12-16T09:39:51.317Z,0.32
2018-12-16T09:45:32.182Z,0.45
2018-12-16T09:48:06.910Z,0.45
2018-12-16T09:53:15.422Z,0.45
2018-12-16T09:55:56.594Z,0.52
2018-12-16T09:58:31.981Z,0.55
2018-12-16T10:01:10.040Z,0.51
2018-12-16T10:03:46.272Z,0.53
2018-12-16T10:06:20.207Z,0.47
2018-12-16T10:08:58.067Z,0.45
2018-12-16T10:11:37.065Z,0.42
2018-12-16T10:14:13.113Z,0.43
2018-12-16T10:16:49.020Z,0.46
2018-12-16T10:19:26.802Z,0.40
2018-12-16T10:22:04.869Z,0.42
2018-12-16T10:24:34.726Z,0.48
2018-12-16T10:27:19.130Z,0.48
2018-12-16T10:29:55.768Z,0.52
2018-12-16T10:32:32.569Z,0.45
2018-12-16T10:35:08.216Z,0.43
2018-12-16T10:37:41.153Z,0.45
2018-12-16T10:40:11.469Z,0.40
2018-12-16T10:42:46.524Z,0.45
2018-12-16T10:45:16.438Z,0.58
2018-12-16T10:47:46.450Z,0.59
2018-12-16T10:50:21.016Z,0.57
2018-12-16T10:52:51.128Z,0.61
2018-12-16T10:55:26.510Z,0.73
2018-12-16T10:57:56.532Z,0.73
2018-12-16T11:00:31.862Z,0.73
2018-12-16T11:03:03.604Z,0.76
2018-12-16T11:05:33.968Z,0.70
2018-12-16T11:08:04.353Z,0.76
2018-12-16T11:10:34.353Z,0.85
2018-12-16T11:13:04.706Z,0.85
2018-12-16T11:15:34.540Z,0.78
2018-12-16T11:18:04.393Z,0.80
2018-12-16T11:20:35.405Z,0.82
2018-12-16T11:23:09.349Z,0.81
2018-12-16T11:25:44.311Z,0.83
2018-12-16T11:28:15.535Z,0.74
2018-12-16T11:30:45.450Z,0.76
2018-12-16T11:33:15.771Z,0.80
2018-12-16T11:36:03.565Z,0.74
2018-12-16T11:38:47.218Z,0.81
2018-12-16T11:41:19.153Z,0.86
2018-12-16T11:43:49.098Z,0.89
2018-12-16T11:46:19.009Z,0.91
2018-12-16T11:48:48.841Z,0.84
2018-12-16T11:54:24.847Z,0.91
2018-12-16T11:56:59.362Z,0.96
2018-12-16T11:59:33.320Z,0.96
2018-12-16T12:02:03.363Z,0.93
2018-12-16T12:04:35.446Z,0.99
2018-12-16T12:07:09.472Z,0.95
2018-12-16T12:09:52.989Z,0.96
2018-12-16T12:12:42.903Z,0.87
2018-12-16T12:15:14.096Z,0.95
2018-12-16T12:18:03.247Z,1.00
2018-12-16T12:20:35.490Z,0.99
2018-12-16T12:23:17.590Z,1.02
2018-12-16T12:25:53.574Z,0.93
2018-12-16T12:28:24.383Z,0.89
2018-12-16T12:30:58.049Z,0.91
2018-12-16T12:36:31.734Z,0.96
2018-12-16T12:39:17.810Z,1.12
2018-12-16T12:42:00.318Z,1.24
2018-12-16T12:44:50.123Z,1.17
2018-12-16T12:47:31.253Z,1.15
2018-12-16T12:50:01.259Z,1.20
2018-12-16T12:52:31.187Z,1.18
2018-12-16T12:55:01.157Z,1.07
2018-12-16T12:57:31.138Z,1.02
2018-12-16T13:00:01.114Z,0.98
2018-12-16T13:02:40.648Z,1.03
2018-12-16T13:05:16.539Z,1.01
2018-12-16T13:07:57.531Z,1.03
2018-12-16T13:10:29.507Z,1.01
2018-12-16T13:12:59.505Z,1.05
2018-12-16T13:15:29.584Z,1.06
2018-12-16T13:18:07.282Z,1.07
2018-12-16T13:20:37.212Z,1.05
2018-12-16T13:23:07.227Z,0.94
2018-12-16T13:25:48.211Z,0.95
2018-12-16T13:28:19.135Z,0.98
2018-12-16T13:30:50.195Z,0.94
2018-12-16T13:33:24.080Z,0.88
2018-12-16T13:35:53.944Z,0.92
2018-12-16T13:38:24.983Z,1.03
2018-12-16T13:40:55.135Z,1.02
2018-12-16T13:43:25.052Z,1.00
2018-12-16T13:45:55.142Z,0.98
2018-12-16T13:48:25.308Z,1.03
2018-12-16T13:50:55.266Z,1.09
2018-12-16T13:53:25.101Z,1.04
2018-12-16T13:55:55.061Z,1.02
2018-12-16T13:58:25.024Z,1.05
2018-12-16T14:00:55.023Z,0.90
2018-12-16T14:03:24.885Z,0.96
2018-12-16T14:05:54.953Z,0.92
2018-12-16T14:08:25.046Z,0.88
2018-12-16T14:10:55.092Z,0.83
2018-12-16T14:13:25.033Z,0.84
2018-12-16T14:15:55.253Z,0.88
2018-12-16T14:18:25.219Z,0.90
2018-12-16T14:20:55.155Z,0.89
2018-12-16T14:23:24.994Z,0.95
2018-12-16T14:25:55.329Z,0.90
2018-12-16T14:28:25.217Z,0.91
2018-12-16T14:30:55.269Z,0.92
2018-12-16T14:33:25.188Z,0.93
2018-12-16T14:35:55.083Z,0.89
2018-12-16T14:38:25.418Z,0.96
2018-12-16T14:40:55.401Z,0.91
2018-12-16T14:43:25.419Z,0.89
2018-12-16T14:45:55.411Z,0.85
2018-12-16T14:48:25.426Z,0.86
2018-12-16T14:50:55.542Z,0.85
2018-12-16T14:53:25.529Z,0.81
2018-12-16T14:55:55.621Z,0.78
2018-12-16T14:58:25.867Z,0.73
2018-12-16T15:00:55.877Z,0.77
2018-12-16T15:03:25.906Z,0.75
2018-12-16T15:05:56.045Z,0.77
2018-12-16T15:08:26.385Z,0.75
2018-12-16T15:10:57.827Z,0.79
2018-12-16T15:13:27.927Z,0.78
2018-12-16T15:15:57.918Z,0.85
2018-12-16T15:18:27.873Z,0.83
2018-12-16T15:20:59.052Z,0.85
2018-12-16T15:23:29.063Z,0.81
2018-12-16T15:26:02.096Z,0.75
2018-12-16T15:28:31.145Z,0.77
2018-12-16T15:31:01.229Z,0.73
2018-12-16T15:33:31.198Z,0.75
2018-12-16T15:36:01.358Z,0.75
2018-12-16T15:38:31.403Z,0.73
2018-12-16T15:41:01.383Z,0.78
2018-12-16T15:43:31.503Z,0.82
2018-12-16T15:46:01.653Z,0.75
2018-12-16T15:48:31.650Z,0.74
2018-12-16T15:51:02.750Z,0.71
2018-12-16T15:53:32.814Z,0.67
2018-12-16T15:56:09.132Z,0.64
2018-12-16T15:58:34.983Z,0.74
2018-12-16T16:01:05.121Z,0.84
2018-12-16T16:03:35.136Z,0.90
2018-12-16T16:06:05.368Z,0.81
2018-12-16T16:08:35.562Z,0.82
2018-12-16T16:11:05.641Z,0.78
2018-12-16T16:13:35.742Z,0.75
2018-12-16T16:16:06.170Z,0.74
2018-12-16T16:18:36.216Z,0.71
2018-12-16T16:21:06.403Z,0.77
2018-12-16T16:23:36.578Z,0.74
2018-12-16T16:26:06.699Z,0.76
2018-12-16T16:28:36.731Z,0.69
2018-12-16T16:31:07.019Z,0.77
2018-12-16T16:33:37.669Z,0.72
2018-12-16T16:36:07.662Z,0.76
2018-12-16T16:38:37.732Z,0.80
2018-12-16T16:41:08.017Z,0.79
2018-12-16T16:43:38.041Z,0.82
2018-12-16T16:46:08.342Z,0.79
2018-12-16T16:48:38.627Z,0.77
2018-12-16T16:51:08.766Z,0.81
2018-12-16T16:53:38.901Z,0.73
2018-12-16T16:56:09.078Z,0.77
2018-12-16T16:58:39.138Z,0.71
2018-12-16T17:01:09.322Z,0.69
2018-12-16T17:03:39.245Z,0.76
2018-12-16T17:06:09.505Z,0.71
2018-12-16T17:08:39.575Z,0.67
2018-12-16T17:11:10.006Z,0.68
2018-12-16T17:13:40.067Z,0.72
2018-12-16T17:16:10.224Z,0.73
2018-12-16T17:18:41.846Z,0.75
2018-12-16T17:21:13.532Z,0.75
2018-12-16T17:23:43.669Z,0.70
2018-12-16T17:26:13.960Z,0.74
2018-12-16T17:28:44.216Z,0.75
2018-12-16T17:31:14.410Z,0.68
2018-12-16T17:33:44.549Z,0.67
2018-12-16T17:36:14.663Z,0.74
2018-12-16T17:38:46.699Z,0.77
2018-12-16T17:41:17.062Z,0.81
2018-12-16T17:43:47.018Z,0.81
2018-12-16T17:46:17.194Z,0.81
2018-12-16T17:48:47.282Z,0.80
2018-12-16T17:51:17.378Z,0.73
2018-12-16T17:53:47.507Z,0.73
2018-12-16T17:56:18.762Z,0.78
2018-12-16T17:58:48.840Z,0.78
2018-12-16T18:01:18.994Z,0.80
2018-12-16T18:03:49.205Z,0.78
2018-12-16T18:06:19.334Z,0.79
2018-12-16T18:08:49.341Z,0.81
2018-12-16T18:11:19.477Z,0.75
2018-12-16T18:13:50.564Z,0.79
2018-12-16T18:16:20.574Z,0.83
2018-12-16T18:18:50.589Z,0.86
2018-12-16T18:21:20.730Z,0.84
2018-12-16T18:23:51.080Z,0.81
2018-12-16T18:26:21.227Z,0.80
2018-12-16T18:28:53.448Z,0.86
2018-12-16T18:31:23.791Z,0.82
2018-12-16T18:33:54.515Z,0.81
2018-12-16T18:36:24.497Z,0.80
2018-12-16T18:38:54.655Z,0.76
2018-12-16T18:41:24.717Z,0.82
2018-12-16T18:43:54.916Z,0.74
2018-12-16T18:46:25.009Z,0.77
2018-12-16T18:48:56.035Z,0.74
2018-12-16T18:51:26.056Z,0.74
2018-12-16T18:53:56.196Z,0.78
2018-12-16T18:56:26.192Z,0.80
2018-12-16T18:58:56.323Z,0.74
2018-12-16T19:01:26.402Z,0.69
2018-12-16T19:03:56.369Z,0.66
2018-12-16T19:06:26.374Z,0.67
2018-12-16T19:08:56.363Z,0.62
2018-12-16T19:11:26.381Z,0.64
2018-12-16T19:13:56.364Z,0.65
2018-12-16T19:16:26.428Z,0.63
2018-12-16T19:18:56.846Z,0.57
2018-12-16T19:21:26.870Z,0.53
2018-12-16T19:23:56.838Z,0.49
2018-12-16T19:26:26.846Z,0.49
2018-12-16T19:28:56.890Z,0.42
2018-12-16T19:31:26.868Z,0.40
2018-12-16T19:33:57.223Z,0.41
2018-12-16T19:36:27.294Z,0.45
2018-12-16T19:38:57.316Z,0.40
2018-12-16T19:41:28.326Z,0.46
2018-12-16T19:43:59.106Z,0.53
2018-12-16T19:46:29.077Z,0.60
2018-12-16T19:48:59.064Z,0.56
2018-12-16T19:51:29.083Z,0.60
2018-12-16T19:53:58.944Z,0.62
2018-12-16T19:56:29.195Z,0.58
2018-12-16T19:58:59.394Z,0.55
2018-12-16T20:01:29.459Z,0.63
2018-12-16T20:04:10.268Z,0.61
2018-12-16T20:06:46.406Z,0.69
2018-12-16T20:09:16.548Z,0.69
2018-12-16T20:11:46.704Z,0.66
2018-12-16T20:14:16.864Z,0.67
2018-12-16T20:16:46.838Z,0.68
2018-12-16T20:19:16.851Z,0.72
2018-12-16T20:21:46.880Z,0.77
2018-12-16T20:24:17.199Z,0.68
2018-12-16T20:26:47.439Z,0.70
2018-12-16T20:29:17.459Z,0.70
2018-12-16T20:31:47.504Z,0.69
2018-12-16T20:34:17.568Z,0.69
2018-12-16T20:36:47.586Z,0.70
2018-12-16T20:39:17.892Z,0.71
2018-12-16T20:41:47.995Z,0.67
2018-12-16T20:44:19.210Z,0.65
2018-12-16T20:46:49.067Z,0.70
2018-12-16T20:49:19.074Z,0.66
2018-12-16T20:51:49.141Z,0.69
2018-12-16T20:54:19.119Z,0.68
2018-12-16T20:56:49.191Z,0.69
2018-12-16T20:59:19.193Z,0.72
2018-12-16T21:01:49.187Z,0.82
2018-12-16T21:04:19.063Z,0.79
2018-12-16T21:06:49.033Z,0.81
2018-12-16T21:09:19.248Z,0.75
2018-12-16T21:11:54.688Z,0.70
2018-12-16T21:14:31.679Z,0.73
2018-12-16T21:17:09.269Z,0.81
2018-12-16T21:19:39.792Z,0.81
2018-12-16T21:22:11.693Z,0.84
2018-12-16T21:24:41.830Z,0.86
2018-12-16T21:27:11.933Z,0.85
2018-12-16T21:29:41.983Z,0.90
2018-12-16T21:32:11.962Z,0.87
2018-12-16T21:34:41.967Z,0.88
2018-12-16T21:37:12.028Z,0.90
2018-12-16T21:39:42.118Z,0.90
2018-12-16T21:42:12.183Z,0.87
2018-12-16T21:44:42.235Z,0.85
2018-12-16T21:47:12.310Z,0.89
2018-12-16T21:49:42.420Z,0.88
2018-12-16T21:52:12.450Z,0.89
2018-12-16T21:54:42.634Z,0.91
2018-12-16T21:57:13.864Z,0.89
2018-12-16T21:59:44.406Z,0.91
2018-12-16T22:02:14.389Z,0.89
2018-12-16T22:04:45.021Z,0.92
2018-12-16T22:07:15.169Z,0.89
2018-12-16T22:09:45.227Z,0.84
2018-12-16T22:12:15.618Z,0.89
2018-12-16T22:14:45.750Z,0.90
2018-12-16T22:17:15.983Z,0.87
2018-12-16T22:19:45.943Z,0.88
2018-12-16T22:22:16.102Z,0.91
2018-12-16T22:24:46.232Z,0.92
2018-12-16T22:27:16.198Z,0.98
2018-12-16T22:29:46.347Z,0.96
2018-12-16T22:32:16.392Z,1.03
2018-12-16T22:34:47.647Z,0.94
2018-12-16T22:37:17.866Z,0.92
2018-12-16T22:39:47.946Z,0.95
2018-12-16T22:42:17.985Z,0.99
2018-12-16T22:44:49.036Z,1.04
2018-12-16T22:47:19.015Z,1.11
2018-12-16T22:49:49.050Z,1.13
2018-12-16T22:52:20.089Z,1.06
2018-12-16T22:54:50.314Z,1.07
2018-12-16T22:57:20.298Z,1.08
2018-12-16T22:59:50.378Z,1.09
2018-12-16T23:02:20.383Z,1.09
2018-12-16T23:04:50.398Z,1.09
2018-12-16T23:07:20.789Z,1.13
2018-12-16T23:09:52.551Z,1.20
2018-12-16T23:12:22.611Z,1.11
2018-12-16T23:14:52.698Z,1.18
2018-12-16T23:17:22.834Z,1.11
2018-12-16T23:19:58.128Z,1.07
2018-12-16T23:22:28.316Z,1.05
2018-12-16T23:24:58.685Z,1.00
2018-12-16T23:27:28.681Z,0.99
2018-12-16T23:29:58.920Z,1.03
2018-12-16T23:32:28.952Z,1.10
2018-12-16T23:34:59.079Z,1.13
2018-12-16T23:37:29.102Z,1.13
2018-12-16T23:39:59.286Z,1.18
2018-12-16T23:42:29.318Z,1.15
2018-12-16T23:44:59.410Z,1.15
2018-12-16T23:47:29.388Z,1.18
2018-12-16T23:49:59.724Z,1.18
2018-12-16T23:52:29.898Z,1.20
2018-12-16T23:54:59.908Z,1.24
2018-12-16T23:57:29.911Z,1.25
